Terminal Aerodrome Forecast
Issued by NWS

Home | Current Version | Previous Version | Text Only | Print | Product List | Glossary On
Versions: 1 2 3 4 5 6 7 8 9 10 11 12 13 14 15 16 17 18 19 20 21 22 23 24
000
FTUS46 KMTR 181700
TAFSFO
TAF
KSFO 181737Z 1818/1924 20008KT P6SM VCSH FEW010 SCT025 BKN045
      TEMPO 1818/1821 -SHRA
     FM182100 23010KT P6SM VCSH BKN035 BKN050
     FM182300 25010KT P6SM SCT035 BKN050
     FM190700 27005KT P6SM FEW008 BKN015
     FM192000 29010KT P6SM SCT030=

USA.gov is the U.S. government's official web portal to all federal, state and local government web resources and services.